createdAt,value
2018-06-23T00:00:49.996Z,992.181
2018-06-23T00:02:50.135Z,992.181
2018-06-23T00:04:50.471Z,992.181
2018-06-23T00:06:49.706Z,992.177
2018-06-23T00:08:49.928Z,992.178
2018-06-23T00:10:50.055Z,992.182
2018-06-23T00:12:50.002Z,992.191
2018-06-23T00:14:50.092Z,992.176
2018-06-23T00:16:50.273Z,992.170
2018-06-23T00:18:50.409Z,992.163
2018-06-23T00:20:50.599Z,992.163
2018-06-23T00:22:49.712Z,992.110
2018-06-23T00:24:49.763Z,992.091
2018-06-23T00:26:49.991Z,992.088
2018-06-23T00:28:50.128Z,992.085
2018-06-23T00:30:50.214Z,992.067
2018-06-23T00:32:50.306Z,992.063
2018-06-23T00:34:50.532Z,992.039
2018-06-23T00:36:49.753Z,992.039
2018-06-23T00:38:49.825Z,992.009
2018-06-23T00:40:49.963Z,992.011
2018-06-23T00:42:50.145Z,991.994
2018-06-23T00:44:50.184Z,991.993
2018-06-23T00:46:50.420Z,992.001
2018-06-23T00:48:50.492Z,991.999
2018-06-23T00:50:49.661Z,991.984
2018-06-23T00:52:49.755Z,991.990
2018-06-23T00:54:49.862Z,991.982
2018-06-23T00:56:50.033Z,991.980
2018-06-23T00:58:50.074Z,991.983
2018-06-23T01:00:50.172Z,991.979
2018-06-23T01:02:50.213Z,991.981
2018-06-23T01:04:49.644Z,991.963
2018-06-23T01:06:50.021Z,991.944
2018-06-23T01:08:50.079Z,991.929
2018-06-23T01:10:50.219Z,991.931
2018-06-23T01:12:50.261Z,991.946
2018-06-23T01:14:50.353Z,991.953
2018-06-23T01:16:50.581Z,991.985
2018-06-23T01:18:49.734Z,991.994
2018-06-23T01:20:49.836Z,992.006
2018-06-23T01:22:49.977Z,992.021
2018-06-23T01:24:50.044Z,992.025
2018-06-23T01:26:50.260Z,992.039
2018-06-23T01:28:50.385Z,992.075
2018-06-23T01:30:50.452Z,992.100
2018-06-23T01:32:50.605Z,992.111
2018-06-23T01:34:49.879Z,992.115
2018-06-23T01:36:50.153Z,992.130
2018-06-23T01:38:50.322Z,992.120
2018-06-23T01:40:50.441Z,992.101
2018-06-23T01:42:50.548Z,992.100
2018-06-23T01:44:49.639Z,992.087
2018-06-23T01:46:49.933Z,992.070
2018-06-23T01:48:50.042Z,992.058
2018-06-23T01:50:50.137Z,992.058
2018-06-23T01:52:50.318Z,992.062
2018-06-23T01:54:50.523Z,992.058
2018-06-23T01:56:49.763Z,992.060
2018-06-23T01:58:49.830Z,992.058
2018-06-23T02:00:49.950Z,992.048
2018-06-23T02:02:50.193Z,992.048
2018-06-23T02:04:50.447Z,992.021
2018-06-23T02:06:49.781Z,991.980
2018-06-23T02:08:50.578Z,991.983
2018-06-23T02:10:49.715Z,991.959
2018-06-23T02:12:49.791Z,991.960
2018-06-23T02:14:49.889Z,991.937
2018-06-23T02:16:50.102Z,991.922
2018-06-23T02:18:50.189Z,991.914
2018-06-23T02:20:50.247Z,991.917
2018-06-23T02:22:50.325Z,991.917
2018-06-23T02:24:50.341Z,991.934
2018-06-23T02:26:50.570Z,991.938
2018-06-23T02:28:49.661Z,991.963
2018-06-23T02:30:49.778Z,992.015
2018-06-23T02:32:49.831Z,992.034
2018-06-23T02:34:50.010Z,992.042
2018-06-23T02:36:49.898Z,992.046
2018-06-23T02:38:50.003Z,992.031
2018-06-23T02:40:50.062Z,991.999
2018-06-23T02:42:50.187Z,991.983
2018-06-23T02:44:50.344Z,991.962
2018-06-23T02:46:50.563Z,991.973
2018-06-23T02:48:49.652Z,991.998
2018-06-23T02:50:49.740Z,991.992
2018-06-23T02:52:49.875Z,991.972
2018-06-23T02:54:49.983Z,991.981
2018-06-23T02:56:50.303Z,991.981
2018-06-23T02:58:50.407Z,992.012
2018-06-23T03:00:50.509Z,992.015
2018-06-23T03:02:49.639Z,992.011
2018-06-23T03:04:50.049Z,992.041
2018-06-23T03:06:50.239Z,992.038
2018-06-23T03:08:50.330Z,992.034
2018-06-23T03:10:50.456Z,992.038
2018-06-23T03:12:50.506Z,992.036
2018-06-23T03:14:50.588Z,992.021
2018-06-23T03:16:49.735Z,992.019
2018-06-23T03:18:49.824Z,992.028
2018-06-23T03:20:49.903Z,992.034
2018-06-23T03:22:50.045Z,992.036
2018-06-23T03:24:50.237Z,992.044
2018-06-23T03:26:50.433Z,992.024
2018-06-23T03:28:50.598Z,992.059
2018-06-23T03:30:49.723Z,992.071
2018-06-23T03:32:49.877Z,992.071
2018-06-23T03:34:50.226Z,992.073
2018-06-23T03:36:50.480Z,992.073
2018-06-23T03:38:49.625Z,992.094
2018-06-23T03:40:49.915Z,992.100
2018-06-23T03:42:50.115Z,992.139
2018-06-23T03:44:50.281Z,992.142
2018-06-23T03:46:50.488Z,992.157
2018-06-23T03:48:49.713Z,992.154
2018-06-23T03:50:50.028Z,992.150
2018-06-23T03:52:50.079Z,992.165
2018-06-23T03:54:50.229Z,992.173
2018-06-23T03:56:50.516Z,992.165
2018-06-23T03:58:49.801Z,992.197
2018-06-23T04:00:49.917Z,992.211
2018-06-23T04:02:49.986Z,992.254
2018-06-23T04:04:50.320Z,992.277
2018-06-23T04:06:50.536Z,992.302
2018-06-23T04:08:49.766Z,992.310
2018-06-23T04:10:49.941Z,992.306
2018-06-23T04:12:50.029Z,992.276
2018-06-23T04:14:50.107Z,992.254
2018-06-23T04:16:50.551Z,992.207
2018-06-23T04:18:50.189Z,992.178
2018-06-23T04:20:50.390Z,992.152
2018-06-23T04:22:50.606Z,992.148
2018-06-23T04:24:49.840Z,992.153
2018-06-23T04:26:50.086Z,992.169
2018-06-23T04:28:50.292Z,992.184
2018-06-23T04:30:50.502Z,992.191
2018-06-23T04:32:49.626Z,992.188
2018-06-23T04:34:49.845Z,992.191
2018-06-23T04:36:49.991Z,992.198
2018-06-23T04:38:50.197Z,992.205
2018-06-23T04:40:50.279Z,992.214
2018-06-23T04:42:50.437Z,992.221
2018-06-23T04:44:50.516Z,992.211
2018-06-23T04:46:49.770Z,992.234
2018-06-23T04:48:49.895Z,992.233
2018-06-23T04:50:50.034Z,992.218
2018-06-23T04:52:50.130Z,992.196
2018-06-23T04:54:50.214Z,992.199
2018-06-23T04:56:50.384Z,992.218
2018-06-23T04:58:50.460Z,992.214
2018-06-23T05:00:50.614Z,992.219
2018-06-23T05:02:49.724Z,992.217
2018-06-23T05:04:49.990Z,992.213
2018-06-23T05:06:50.185Z,992.206
2018-06-23T05:08:50.332Z,992.185
2018-06-23T05:10:50.458Z,992.165
2018-06-23T05:12:50.540Z,992.153
2018-06-23T05:14:49.724Z,992.158
2018-06-23T05:16:49.918Z,992.152
2018-06-23T05:18:50.000Z,992.175
2018-06-23T05:20:50.205Z,992.192
2018-06-23T05:22:50.261Z,992.229
2018-06-23T05:24:50.385Z,992.242
2018-06-23T05:26:49.694Z,992.252
2018-06-23T05:28:49.724Z,992.238
2018-06-23T05:30:49.855Z,992.230
2018-06-23T05:32:49.956Z,992.253
2018-06-23T05:34:50.383Z,992.265
2018-06-23T05:36:49.921Z,992.258
2018-06-23T05:38:50.165Z,992.265
2018-06-23T05:40:50.249Z,992.282
2018-06-23T05:42:50.324Z,992.282
2018-06-23T05:44:50.606Z,992.266
2018-06-23T05:46:50.231Z,992.263
2018-06-23T05:48:50.526Z,992.273
2018-06-23T05:50:50.680Z,992.333
2018-06-23T05:52:49.853Z,992.344
2018-06-23T05:54:50.016Z,992.354
2018-06-23T05:56:50.308Z,992.346
2018-06-23T05:58:50.426Z,992.358
2018-06-23T06:00:50.624Z,992.390
2018-06-23T06:02:49.878Z,992.424
2018-06-23T06:04:50.208Z,992.425
2018-06-23T06:06:50.451Z,992.437
2018-06-23T06:08:49.719Z,992.456
2018-06-23T06:10:49.924Z,992.499
2018-06-23T06:12:50.181Z,992.517
2018-06-23T06:14:50.334Z,992.516
2018-06-23T06:16:50.563Z,992.513
2018-06-23T06:18:50.464Z,992.518
2018-06-23T06:20:49.707Z,992.539
2018-06-23T06:22:49.837Z,992.538
2018-06-23T06:24:50.073Z,992.538
2018-06-23T06:26:50.275Z,992.539
2018-06-23T06:28:50.398Z,992.529
2018-06-23T06:30:50.535Z,992.528
2018-06-23T06:32:49.721Z,992.486
2018-06-23T06:34:50.041Z,992.475
2018-06-23T06:36:50.259Z,992.475
2018-06-23T06:38:50.371Z,992.480
2018-06-23T06:40:50.448Z,992.509
2018-06-23T06:42:49.705Z,992.504
2018-06-23T06:44:49.775Z,992.507
2018-06-23T06:46:50.019Z,992.466
2018-06-23T06:48:50.122Z,992.481
2018-06-23T06:50:50.497Z,992.485
2018-06-23T06:52:49.861Z,992.482
2018-06-23T06:54:49.927Z,992.497
2018-06-23T06:56:50.061Z,992.506
2018-06-23T06:58:50.162Z,992.510
2018-06-23T07:00:50.222Z,992.495
2018-06-23T07:02:50.333Z,992.504
2018-06-23T07:04:49.637Z,992.518
2018-06-23T07:06:49.800Z,992.527
2018-06-23T07:08:50.029Z,992.518
2018-06-23T07:10:50.338Z,992.509
2018-06-23T07:12:50.433Z,992.486
2018-06-23T07:14:50.485Z,992.475
2018-06-23T07:16:49.726Z,992.453
2018-06-23T07:18:49.806Z,992.451
2018-06-23T07:20:50.076Z,992.445
2018-06-23T07:22:50.135Z,992.407
2018-06-23T07:24:50.293Z,992.397
2018-06-23T07:26:50.665Z,992.362
2018-06-23T07:28:49.937Z,992.318
2018-06-23T07:30:50.197Z,992.288
2018-06-23T07:32:49.871Z,992.288
2018-06-23T07:34:50.612Z,992.301
2018-06-23T07:36:50.111Z,992.293
2018-06-23T07:38:50.246Z,992.293
2018-06-23T07:40:50.321Z,992.246
2018-06-23T07:42:50.558Z,992.221
2018-06-23T07:44:49.654Z,992.220
2018-06-23T07:46:49.824Z,992.219
2018-06-23T07:48:49.933Z,992.209
2018-06-23T07:50:50.150Z,992.165
2018-06-23T07:52:50.211Z,992.157
2018-06-23T07:54:50.320Z,992.129
2018-06-23T07:56:50.514Z,992.143
2018-06-23T07:58:49.687Z,992.173
2018-06-23T08:00:49.753Z,992.193
2018-06-23T08:02:49.858Z,992.188
2018-06-23T08:04:50.117Z,992.179
2018-06-23T08:06:50.333Z,992.207
2018-06-23T08:08:50.380Z,992.263
2018-06-23T08:10:50.457Z,992.277
2018-06-23T08:12:50.554Z,992.252
2018-06-23T08:14:49.644Z,992.246
2018-06-23T08:16:49.842Z,992.211
2018-06-23T08:18:49.933Z,992.200
2018-06-23T08:20:50.009Z,992.155
2018-06-23T08:22:50.021Z,992.174
2018-06-23T08:24:50.124Z,992.180
2018-06-23T08:26:50.290Z,992.182
2018-06-23T08:28:50.399Z,992.221
2018-06-23T08:30:50.457Z,992.218
2018-06-23T08:32:50.580Z,992.218
2018-06-23T08:34:49.881Z,992.214
2018-06-23T08:36:50.142Z,992.216
2018-06-23T08:38:50.216Z,992.210
2018-06-23T08:40:50.299Z,992.185
2018-06-23T08:42:50.428Z,992.161
2018-06-23T08:44:50.495Z,992.161
2018-06-23T08:46:49.750Z,992.144
2018-06-23T08:48:49.870Z,992.180
2018-06-23T08:50:49.950Z,992.167
2018-06-23T08:52:50.047Z,992.178
2018-06-23T08:54:50.089Z,992.125
2018-06-23T08:56:50.361Z,992.062
2018-06-23T08:58:49.672Z,992.047
2018-06-23T09:00:49.789Z,992.017
2018-06-23T09:02:50.261Z,991.993
2018-06-23T09:04:50.125Z,991.995
2018-06-23T09:06:50.505Z,991.934
2018-06-23T09:08:49.735Z,991.917
2018-06-23T09:10:49.909Z,991.903
2018-06-23T09:12:50.026Z,991.939
2018-06-23T09:14:50.147Z,991.978
2018-06-23T09:16:50.654Z,991.987
2018-06-23T09:18:50.251Z,991.941
2018-06-23T09:20:50.344Z,991.929
2018-06-23T09:22:50.423Z,991.974
2018-06-23T09:24:50.462Z,991.964
2018-06-23T09:26:49.806Z,991.951
2018-06-23T09:28:49.856Z,991.933
2018-06-23T09:30:49.888Z,991.845
2018-06-23T09:32:49.998Z,991.789
2018-06-23T09:34:50.246Z,991.736
2018-06-23T09:36:50.535Z,991.736
2018-06-23T09:38:49.701Z,991.741
2018-06-23T09:40:49.753Z,991.741
2018-06-23T09:42:49.807Z,991.743
2018-06-23T09:44:49.973Z,991.799
2018-06-23T09:46:50.161Z,991.811
2018-06-23T09:48:50.240Z,991.809
2018-06-23T09:50:50.326Z,991.842
2018-06-23T09:52:50.571Z,991.877
2018-06-23T09:54:50.626Z,991.873
2018-06-23T09:56:49.872Z,991.872
2018-06-23T09:58:49.983Z,991.858
2018-06-23T10:00:50.068Z,991.798
2018-06-23T10:02:50.132Z,991.779
2018-06-23T10:04:50.372Z,991.779
2018-06-23T10:06:49.727Z,991.916
2018-06-23T10:08:49.862Z,991.957
2018-06-23T10:10:50.011Z,991.887
2018-06-23T10:12:50.099Z,991.842
2018-06-23T10:14:50.175Z,991.732
2018-06-23T10:16:50.438Z,991.720
2018-06-23T10:18:50.560Z,991.706
2018-06-23T10:20:49.733Z,991.697
2018-06-23T10:22:49.777Z,991.687
2018-06-23T10:24:49.870Z,991.701
2018-06-23T10:26:50.079Z,991.694
2018-06-23T10:28:50.246Z,991.689
2018-06-23T10:30:50.312Z,991.646
2018-06-23T10:32:50.429Z,991.605
2018-06-23T10:34:49.751Z,991.560
2018-06-23T10:36:49.930Z,991.535
2018-06-23T10:38:50.266Z,991.494
2018-06-23T10:40:50.379Z,991.473
2018-06-23T10:42:50.424Z,991.452
2018-06-23T10:44:50.483Z,991.409
2018-06-23T10:46:49.757Z,991.346
2018-06-23T10:48:49.847Z,991.305
2018-06-23T10:50:50.103Z,991.287
2018-06-23T10:52:50.211Z,991.272
2018-06-23T10:54:50.279Z,991.291
2018-06-23T10:56:50.538Z,991.324
2018-06-23T10:58:49.713Z,991.271
2018-06-23T11:00:49.783Z,991.290
2018-06-23T11:02:49.927Z,991.290
2018-06-23T11:04:50.548Z,991.331
2018-06-23T11:06:50.407Z,991.367
2018-06-23T11:08:50.558Z,991.371
2018-06-23T11:10:49.696Z,991.375
2018-06-23T11:12:49.818Z,991.382
2018-06-23T11:14:49.906Z,991.413
2018-06-23T11:16:50.158Z,991.400
2018-06-23T11:18:50.250Z,991.404
2018-06-23T11:20:50.399Z,991.411
2018-06-23T11:22:50.450Z,991.411
2018-06-23T11:24:50.558Z,991.439
2018-06-23T11:26:49.848Z,991.443
2018-06-23T11:28:49.902Z,991.490
2018-06-23T11:30:50.019Z,991.508
2018-06-23T11:32:50.132Z,991.507
2018-06-23T11:34:50.545Z,991.510
2018-06-23T11:36:49.777Z,991.500
2018-06-23T11:38:49.886Z,991.505
2018-06-23T11:40:49.982Z,991.514
2018-06-23T11:42:50.235Z,991.503
2018-06-23T11:44:50.059Z,991.474
2018-06-23T11:46:50.231Z,991.439
2018-06-23T11:48:50.184Z,991.422
2018-06-23T11:50:49.857Z,991.392
2018-06-23T11:52:49.954Z,991.361
2018-06-23T11:54:50.004Z,991.372
2018-06-23T11:56:50.272Z,991.377
2018-06-23T11:58:50.416Z,991.395
2018-06-23T12:00:50.471Z,991.392
2018-06-23T12:02:50.577Z,991.392
2018-06-23T12:04:49.820Z,991.313
2018-06-23T12:06:49.946Z,991.312
2018-06-23T12:08:50.100Z,991.281
2018-06-23T12:10:50.177Z,991.281
2018-06-23T12:12:50.343Z,991.265
2018-06-23T12:14:50.476Z,991.182
2018-06-23T12:16:49.743Z,991.158
2018-06-23T12:18:49.958Z,991.141
2018-06-23T12:20:50.129Z,991.112
2018-06-23T12:22:50.294Z,991.080
2018-06-23T12:24:50.403Z,991.053
2018-06-23T12:26:49.818Z,991.020
2018-06-23T12:28:49.942Z,990.999
2018-06-23T12:30:50.023Z,990.981
2018-06-23T12:32:50.221Z,990.939
2018-06-23T12:34:50.553Z,990.939
2018-06-23T12:36:49.739Z,990.938
2018-06-23T12:38:49.890Z,990.942
2018-06-23T12:40:49.921Z,990.914
2018-06-23T12:42:50.119Z,990.886
2018-06-23T12:44:50.177Z,990.886
2018-06-23T12:46:50.342Z,990.815
2018-06-23T12:48:50.471Z,990.833
2018-06-23T12:50:50.516Z,990.878
2018-06-23T12:52:50.601Z,990.909
2018-06-23T12:54:49.694Z,990.909
2018-06-23T12:56:50.042Z,990.948
2018-06-23T12:58:50.172Z,990.940
2018-06-23T13:00:50.219Z,990.936
2018-06-23T13:02:50.295Z,990.964
2018-06-23T13:04:50.771Z,990.947
2018-06-23T13:06:50.494Z,990.956
2018-06-23T13:08:50.595Z,990.919
2018-06-23T13:10:49.787Z,990.893
2018-06-23T13:12:49.868Z,990.908
2018-06-23T13:14:49.925Z,990.902
2018-06-23T13:16:50.142Z,990.894
2018-06-23T13:18:50.218Z,990.929
2018-06-23T13:20:50.307Z,990.907
2018-06-23T13:22:50.496Z,990.907
2018-06-23T13:24:50.558Z,990.836
2018-06-23T13:26:49.931Z,990.836
2018-06-23T13:28:49.985Z,990.882
2018-06-23T13:30:50.073Z,990.891
2018-06-23T13:32:50.133Z,990.879
2018-06-23T13:34:50.392Z,990.873
2018-06-23T13:36:49.662Z,990.860
2018-06-23T13:38:49.782Z,990.843
2018-06-23T13:40:49.875Z,990.872
2018-06-23T13:42:49.922Z,990.859
2018-06-23T13:44:49.976Z,990.837
2018-06-23T13:46:50.127Z,990.810
2018-06-23T13:48:50.237Z,990.774
2018-06-23T13:50:50.298Z,990.734
2018-06-23T13:52:50.399Z,990.724
2018-06-23T13:54:50.460Z,990.710
2018-06-23T13:56:49.715Z,990.677
2018-06-23T13:58:49.809Z,990.672
2018-06-23T14:00:49.875Z,990.672
2018-06-23T14:02:49.968Z,990.680
2018-06-23T14:04:50.196Z,990.667
2018-06-23T14:06:50.485Z,990.680
2018-06-23T14:08:50.556Z,990.660
2018-06-23T14:10:49.658Z,990.678
2018-06-23T14:12:49.798Z,990.702
2018-06-23T14:14:49.969Z,990.729
2018-06-23T14:16:49.634Z,990.776
2018-06-23T14:18:49.775Z,990.797
2018-06-23T14:20:49.953Z,990.806
2018-06-23T14:22:50.051Z,990.803
2018-06-23T14:24:50.108Z,990.802
2018-06-23T14:26:50.261Z,990.815
2018-06-23T14:28:50.338Z,990.826
2018-06-23T14:30:50.581Z,990.849
2018-06-23T14:32:49.694Z,990.893
2018-06-23T14:34:49.880Z,990.858
2018-06-23T14:36:50.082Z,990.883
2018-06-23T14:38:50.252Z,990.898
2018-06-23T14:40:50.353Z,990.892
2018-06-23T14:42:50.447Z,990.894
2018-06-23T14:44:50.510Z,990.898
2018-06-23T14:46:49.685Z,990.863
2018-06-23T14:48:49.880Z,990.855
2018-06-23T14:50:49.990Z,990.800
2018-06-23T14:52:50.058Z,990.782
2018-06-23T14:54:50.225Z,990.780
2018-06-23T14:56:50.389Z,990.764
2018-06-23T14:58:50.448Z,990.777
2018-06-23T15:00:50.571Z,990.764
2018-06-23T15:02:49.714Z,990.797
2018-06-23T15:04:50.246Z,990.797
2018-06-23T15:06:49.729Z,990.779
2018-06-23T15:08:49.927Z,990.774
2018-06-23T15:10:50.060Z,990.776
2018-06-23T15:12:50.133Z,990.794
2018-06-23T15:14:50.168Z,990.798
2018-06-23T15:16:50.405Z,990.803
2018-06-23T15:18:50.465Z,990.807
2018-06-23T15:20:50.588Z,990.805
2018-06-23T15:22:49.644Z,990.792
2018-06-23T15:24:49.723Z,990.792
2018-06-23T15:26:49.885Z,990.810
2018-06-23T15:28:50.010Z,990.815
2018-06-23T15:30:50.088Z,990.812
2018-06-23T15:32:50.171Z,990.831
2018-06-23T15:34:50.510Z,990.853
2018-06-23T15:36:49.892Z,990.851
2018-06-23T15:38:49.990Z,990.830
2018-06-23T15:40:50.042Z,990.803
2018-06-23T15:42:50.093Z,990.800
2018-06-23T15:44:50.175Z,990.766
2018-06-23T15:46:50.410Z,990.725
2018-06-23T15:48:50.484Z,990.720
2018-06-23T15:50:50.567Z,990.698
2018-06-23T15:52:49.609Z,990.690
2018-06-23T15:54:49.748Z,990.683
2018-06-23T15:56:49.962Z,990.660
2018-06-23T15:58:50.070Z,990.667
2018-06-23T16:00:50.203Z,990.656
2018-06-23T16:02:50.318Z,990.634
2018-06-23T16:04:49.720Z,990.636
2018-06-23T16:06:49.870Z,990.639
2018-06-23T16:08:50.087Z,990.612
2018-06-23T16:10:50.562Z,990.584
2018-06-23T16:12:49.624Z,990.577
2018-06-23T16:14:50.030Z,990.559
2018-06-23T16:16:50.554Z,990.562
2018-06-23T16:18:49.675Z,990.569
2018-06-23T16:20:49.753Z,990.606
2018-06-23T16:22:49.794Z,990.637
2018-06-23T16:24:49.923Z,990.666
2018-06-23T16:26:50.200Z,990.669
2018-06-23T16:28:50.287Z,990.652
2018-06-23T16:30:50.418Z,990.668
2018-06-23T16:32:50.503Z,990.651
2018-06-23T16:34:50.474Z,990.631
2018-06-23T16:36:49.878Z,990.636
2018-06-23T16:38:49.982Z,990.639
2018-06-23T16:40:50.092Z,990.649
2018-06-23T16:42:50.267Z,990.631
2018-06-23T16:44:50.381Z,990.628
2018-06-23T16:46:50.586Z,990.630
2018-06-23T16:48:49.738Z,990.628
2018-06-23T16:50:49.789Z,990.599
2018-06-23T16:52:49.899Z,990.598
2018-06-23T16:54:49.950Z,990.563
2018-06-23T16:56:50.110Z,990.563
2018-06-23T16:58:50.210Z,990.575
2018-06-23T17:00:50.259Z,990.553
2018-06-23T17:02:50.345Z,990.549
2018-06-23T17:04:50.594Z,990.543
2018-06-23T17:06:49.772Z,990.543
2018-06-23T17:08:49.875Z,990.542
2018-06-23T17:10:50.026Z,990.533
2018-06-23T17:12:50.058Z,990.554
2018-06-23T17:14:50.198Z,990.552
2018-06-23T17:16:50.455Z,990.548
2018-06-23T17:18:50.569Z,990.546
2018-06-23T17:20:49.651Z,990.544
2018-06-23T17:22:49.859Z,990.534
2018-06-23T17:24:49.899Z,990.541
2018-06-23T17:26:50.100Z,990.544
2018-06-23T17:28:50.188Z,990.551
2018-06-23T17:30:50.248Z,990.542
2018-06-23T17:32:50.299Z,990.533
2018-06-23T17:34:50.541Z,990.515
2018-06-23T17:36:49.706Z,990.517
2018-06-23T17:38:49.841Z,990.484
2018-06-23T17:40:49.913Z,990.459
2018-06-23T17:42:50.081Z,990.440
2018-06-23T17:44:50.140Z,990.439
2018-06-23T17:46:50.448Z,990.441
2018-06-23T17:48:50.539Z,990.421
2018-06-23T17:50:49.685Z,990.421
2018-06-23T17:52:49.809Z,990.404
2018-06-23T17:54:49.885Z,990.408
2018-06-23T17:56:50.174Z,990.412
2018-06-23T17:58:50.221Z,990.423
2018-06-23T18:00:50.313Z,990.409
2018-06-23T18:02:50.386Z,990.387
2018-06-23T18:04:49.830Z,990.391
2018-06-23T18:06:49.972Z,990.400
2018-06-23T18:08:50.143Z,990.382
2018-06-23T18:10:50.251Z,990.365
2018-06-23T18:12:50.276Z,990.362
2018-06-23T18:14:50.398Z,990.364
2018-06-23T18:16:49.610Z,990.353
2018-06-23T18:18:49.744Z,990.344
2018-06-23T18:20:49.853Z,990.328
2018-06-23T18:22:49.918Z,990.319
2018-06-23T18:24:50.019Z,990.315
2018-06-23T18:26:50.141Z,990.303
2018-06-23T18:28:50.233Z,990.300
2018-06-23T18:30:50.344Z,990.302
2018-06-23T18:32:50.509Z,990.318
2018-06-23T18:34:49.774Z,990.323
2018-06-23T18:36:49.935Z,990.320
2018-06-23T18:38:50.212Z,990.320
2018-06-23T18:40:50.247Z,990.322
2018-06-23T18:42:50.433Z,990.322
2018-06-23T18:44:50.465Z,990.309
2018-06-23T18:46:49.805Z,990.309
2018-06-23T18:48:49.872Z,990.305
2018-06-23T18:50:49.948Z,990.302
2018-06-23T18:52:49.968Z,990.312
2018-06-23T18:54:50.158Z,990.330
2018-06-23T18:56:50.386Z,990.330
2018-06-23T18:58:50.480Z,990.337
2018-06-23T19:00:50.599Z,990.328
2018-06-23T19:02:49.679Z,990.340
2018-06-23T19:04:49.944Z,990.339
2018-06-23T19:06:50.148Z,990.328
2018-06-23T19:08:50.526Z,990.352
2018-06-23T19:10:50.073Z,990.368
2018-06-23T19:12:50.129Z,990.381
2018-06-23T19:14:50.264Z,990.385
2018-06-23T19:16:50.633Z,990.410
2018-06-23T19:18:49.700Z,990.423
2018-06-23T19:20:49.784Z,990.460
2018-06-23T19:22:49.948Z,990.467
2018-06-23T19:24:50.056Z,990.476
2018-06-23T19:26:50.262Z,990.464
2018-06-23T19:28:50.384Z,990.479
2018-06-23T19:30:50.420Z,990.500
2018-06-23T19:32:50.506Z,990.516
2018-06-23T19:34:49.897Z,990.542
2018-06-23T19:36:50.091Z,990.556
2018-06-23T19:38:50.177Z,990.578
2018-06-23T19:40:50.307Z,990.567
2018-06-23T19:42:50.452Z,990.567
2018-06-23T19:46:50.489Z,990.610
2018-06-23T19:48:50.589Z,990.617
2018-06-23T19:50:49.643Z,990.608
2018-06-23T19:52:49.722Z,990.607
2018-06-23T19:54:49.797Z,990.600
2018-06-23T19:56:49.973Z,990.595
2018-06-23T19:58:50.154Z,990.589
2018-06-23T20:00:50.307Z,990.584
2018-06-23T20:02:50.359Z,990.592
2018-06-23T20:04:49.691Z,990.599
2018-06-23T20:06:49.863Z,990.628
2018-06-23T20:08:49.943Z,990.635
2018-06-23T20:10:50.013Z,990.641
2018-06-23T20:12:50.068Z,990.650
2018-06-23T20:14:50.552Z,990.653
2018-06-23T20:16:49.887Z,990.644
2018-06-23T20:18:49.957Z,990.656
2018-06-23T20:20:50.044Z,990.640
2018-06-23T20:22:50.113Z,990.649
2018-06-23T20:24:50.172Z,990.647
2018-06-23T20:26:50.347Z,990.620
2018-06-23T20:28:50.502Z,990.621
2018-06-23T20:30:50.577Z,990.622
2018-06-23T20:32:49.784Z,990.589
2018-06-23T20:34:50.091Z,990.589
2018-06-23T20:36:50.305Z,990.601
2018-06-23T20:38:50.380Z,990.601
2018-06-23T20:40:50.464Z,990.597
2018-06-23T20:42:50.562Z,990.583
2018-06-23T20:44:50.589Z,990.566
2018-06-23T20:46:49.796Z,990.554
2018-06-23T20:48:49.854Z,990.573
2018-06-23T20:50:49.915Z,990.564
2018-06-23T20:52:50.026Z,990.570
2018-06-23T20:54:50.074Z,990.578
2018-06-23T20:56:50.283Z,990.581
2018-06-23T20:58:50.383Z,990.585
2018-06-23T21:00:50.652Z,990.577
2018-06-23T21:02:49.977Z,990.605
2018-06-23T21:04:50.265Z,990.618
2018-06-23T21:06:50.485Z,990.606
2018-06-23T21:08:49.678Z,990.610
2018-06-23T21:10:49.731Z,990.607
2018-06-23T21:12:49.942Z,990.597
2018-06-23T21:14:50.082Z,990.605
2018-06-23T21:16:50.351Z,990.601
2018-06-23T21:18:50.401Z,990.619
2018-06-23T21:20:50.510Z,990.614
2018-06-23T21:22:50.601Z,990.597
2018-06-23T21:24:49.658Z,990.590
2018-06-23T21:26:49.849Z,990.588
2018-06-23T21:28:49.982Z,990.589
2018-06-23T21:30:50.418Z,990.588
2018-06-23T21:32:49.704Z,990.584
2018-06-23T21:34:50.197Z,990.594
2018-06-23T21:36:50.554Z,990.581
2018-06-23T21:38:49.839Z,990.558
2018-06-23T21:40:49.930Z,990.545
2018-06-23T21:42:50.063Z,990.521
2018-06-23T21:44:50.114Z,990.500
2018-06-23T21:46:50.451Z,990.476
2018-06-23T21:48:50.586Z,990.464
2018-06-23T21:50:49.675Z,990.462
2018-06-23T21:52:49.722Z,990.456
2018-06-23T21:54:49.796Z,990.446
2018-06-23T21:56:50.033Z,990.432
2018-06-23T21:58:50.130Z,990.416
2018-06-23T22:00:50.272Z,990.399
2018-06-23T22:02:49.612Z,990.396
2018-06-23T22:04:50.023Z,990.392
2018-06-23T22:06:50.282Z,990.370
2018-06-23T22:08:50.354Z,990.341
2018-06-23T22:10:50.474Z,990.341
2018-06-23T22:12:50.574Z,990.302
2018-06-23T22:14:49.638Z,990.314
2018-06-23T22:16:49.924Z,990.325
2018-06-23T22:18:50.018Z,990.338
2018-06-23T22:20:50.095Z,990.324
2018-06-23T22:22:50.183Z,990.315
2018-06-23T22:24:50.270Z,990.296
2018-06-23T22:26:50.611Z,990.299
2018-06-23T22:28:49.653Z,990.292
2018-06-23T22:30:49.752Z,990.290
2018-06-23T22:32:49.792Z,990.285
2018-06-23T22:34:50.047Z,990.287
2018-06-23T22:36:50.359Z,990.297
2018-06-23T22:38:50.409Z,990.290
2018-06-23T22:40:50.528Z,990.290
2018-06-23T22:42:49.682Z,990.273
2018-06-23T22:44:49.733Z,990.268
2018-06-23T22:46:49.976Z,990.301
2018-06-23T22:48:50.106Z,990.297
2018-06-23T22:50:50.315Z,990.291
2018-06-23T22:52:50.481Z,990.291
2018-06-23T22:54:49.750Z,990.286
2018-06-23T22:56:49.980Z,990.249
2018-06-23T22:58:50.158Z,990.236
2018-06-23T23:00:50.335Z,990.218
2018-06-23T23:02:50.409Z,990.211
2018-06-23T23:04:49.770Z,990.204
2018-06-23T23:06:49.961Z,990.210
2018-06-23T23:08:50.094Z,990.183
2018-06-23T23:10:50.186Z,990.173
2018-06-23T23:12:50.539Z,990.165
2018-06-23T23:14:50.062Z,990.165
2018-06-23T23:16:50.352Z,990.109
2018-06-23T23:18:50.454Z,990.113
2018-06-23T23:20:50.544Z,990.102
2018-06-23T23:22:50.619Z,990.120
2018-06-23T23:24:49.755Z,990.120
2018-06-23T23:26:49.975Z,990.148
2018-06-23T23:28:50.014Z,990.152
2018-06-23T23:30:50.156Z,990.150
2018-06-23T23:32:50.233Z,990.150
2018-06-23T23:34:49.705Z,990.158
2018-06-23T23:36:49.907Z,990.167
2018-06-23T23:38:50.118Z,990.170
2018-06-23T23:40:50.314Z,990.170
2018-06-23T23:42:50.464Z,990.148
2018-06-23T23:44:50.569Z,990.139
2018-06-23T23:46:49.813Z,990.129
2018-06-23T23:48:49.879Z,990.128
2018-06-23T23:50:50.108Z,990.113
2018-06-23T23:52:50.184Z,990.091
2018-06-23T23:54:50.227Z,990.078
2018-06-23T23:56:50.400Z,990.066
2018-06-23T23:58:50.491Z,990.039
